Audubon, IA

3:58 PM CDT on August 21, 2014 (GMT -0500)
Herbers Seed | Change Station
CLOSE
Current Station
Personal Weather Station
Location: Audubon, IA
Elevation: 1385 ft
Nearby Weather Stations

Elev 1385 ft 41.73 °N, 94.94 °W | Updated 10 minutes ago

Clear
Clear
82.9 °F
Feels Like 89 °F
N
0.0
Wind Variable Wind from South

Today
High -- | Low -- °F
--% Chance of Precip.
Yesterday
High -- | Low -- °F
Precip. -- in
6:34 AM 8:10 PM
Waning Crescent, 12% visible
Pressure 29.87 in
Visibility 10.0 miles
Clouds Clear
Heat Index 89 °F
Dew Point 74 °F
Humidity 74%
Rainfall 0.00 in
Snow Depth Not available.
UV 7 out of 12
Pollen 8.00 out of 12
Air Quality Not available.
Flu Activity Not available.
METAR KADU 212035Z AUTO 20010KT 10SM CLR 31/25 A2987 RMK AO2

More Conditions Fewer Conditions

Pressure 29.87 in
Visibility 10.0 miles
Clouds Clear
Heat Index 89 °F
Dew Point 74 °F
Humidity 74%
Rainfall 0.00 in
Snow Depth Not available.
UV 7 out of 12
Pollen 8.00 out of 12
Air Quality Not available.
Flu Activity Not available.
METAR KADU 212035Z AUTO 20010KT 10SM CLR 31/25 A2987 RMK AO2

More Conditions Fewer Conditions

10-Day Weather Forecast

Almanac

Astronomy

Aug. 21, 2014 Rise Set
Actual Time 6:34 AM CDT 8:10 PM CDT
Civil Twilight 6:04 AM CDT 8:39 PM CDT
Nautical Twilight 5:29 AM CDT 9:15 PM CDT
Astronomical Twilight 4:51 AM CDT 9:53 PM CDT
Moon 3:03 AM CDT 5:41 PM CDT
Length of Visible Light 14h 34m
Length of Day
13h 36m
Tomorrow will be 2m 34s shorter.
Waning Crescent, 12% of the Moon is Illuminated
Today
Waning Crescent
Aug 25
New
Sep 2
First Quarter
Sep 8
Full
Sep 15
Last Quarter

Today's Extremes

State Highs State Lows

Community

WunderPhotos

Upload Photos

1,746,017 photos uploaded!

WunderBlogs® & News

Nearby

Snow Depth

Station Depth Elevation
No new snow has been reported.

Earthquake Activity

City Distance Mag. Time & Date
No recent earthquake activity has been reported nearby.
Minimum magnitude displayed is 2.5.

Coastal Water Temperatures

Place Temperature
No Stations Reporting

Nearby Weather Stations